Time;durP1;ratioP1;P1;durP2;ratioP2;P2;SDS_P1;SDS_P2;PMS_P1;PMS_P2;Temp;Humidity;BMP_temperature;BMP_pressure;BME280_temperature;BME280_humidity;BME280_pressure;Samples;Min_cycle;Max_cycle;Signal;HPM_P1;HPM_P2
2023/03/15 00:00:45;;;;;;;7.67;1.50;;;2.90;99.90;;;;;;5008142;28;20248;-70
2023/03/15 00:03:13;;;;;;;7.03;1.50;;;2.80;99.90;;;;;;5007758;28;20307;-69
2023/03/15 00:05:42;;;;;;;3.33;1.57;;;2.90;99.90;;;;;;5007945;28;20209;-70
2023/03/15 00:08:11;;;;;;;2.47;1.10;;;3.00;99.90;;;;;;5007806;28;20214;-70
2023/03/15 00:10:40;;;;;;;4.87;1.33;;;3.00;99.90;;;;;;5007718;28;20241;-72
2023/03/15 00:13:07;;;;;;;2.97;1.70;;;3.00;99.90;;;;;;4988211;28;20217;-71
2023/03/15 00:15:36;;;;;;;6.63;1.60;;;3.00;99.90;;;;;;4988455;28;20301;-71
2023/03/15 00:18:03;;;;;;;4.87;1.77;;;2.90;99.90;;;;;;4990953;28;20205;-71
2023/03/15 00:20:31;;;;;;;4.03;1.70;;;2.80;99.90;;;;;;5007343;28;20779;-71
2023/03/15 00:22:58;;;;;;;2.50;1.23;;;2.90;99.90;;;;;;5007771;28;20316;-72
2023/03/15 00:25:25;;;;;;;5.70;1.80;;;2.90;99.90;;;;;;5007620;28;20300;-71
2023/03/15 00:27:51;;;;;;;5.23;1.40;;;2.80;99.90;;;;;;5007205;28;20344;-67
2023/03/15 00:30:18;;;;;;;4.33;1.10;;;2.80;99.90;;;;;;5007613;28;20727;-67
2023/03/15 00:32:47;;;;;;;4.50;1.03;;;2.80;99.90;;;;;;5007225;28;20244;-68
2023/03/15 00:35:17;;;;;;;4.50;1.43;;;2.80;99.90;;;;;;5007481;28;20300;-69
2023/03/15 00:37:44;;;;;;;4.53;1.30;;;2.70;99.90;;;;;;5023421;28;20201;-68
2023/03/15 00:40:12;;;;;;;3.20;1.20;;;2.70;99.90;;;;;;5022045;28;20264;-69
2023/03/15 00:42:39;;;;;;;5.97;1.57;;;2.70;99.90;;;;;;5007195;28;20209;-69
2023/03/15 00:45:07;;;;;;;4.30;1.47;;;2.70;99.90;;;;;;5007508;28;20297;-69
2023/03/15 00:47:34;;;;;;;5.20;1.53;;;2.70;99.90;;;;;;5007319;28;20305;-69
2023/03/15 00:50:02;;;;;;;3.00;1.93;;;2.70;99.90;;;;;;5007305;28;20308;-69
2023/03/15 00:52:34;;;;;;;4.33;1.60;;;2.60;99.90;;;;;;5006828;28;20739;-70
2023/03/15 00:55:01;;;;;;;1.70;1.20;;;2.60;99.90;;;;;;5007404;28;20202;-69
2023/03/15 00:57:28;;;;;;;3.47;1.13;;;2.60;99.90;;;;;;5007317;28;20332;-69
2023/03/15 00:59:55;;;;;;;3.63;1.00;;;2.50;99.90;;;;;;5006780;28;20705;-69
2023/03/15 01:02:22;;;;;;;6.43;1.27;;;2.60;99.90;;;;;;5006972;28;20304;-69
2023/03/15 01:04:50;;;;;;;3.33;1.13;;;2.50;99.90;;;;;;5006819;28;20766;-69
2023/03/15 01:07:18;;;;;;;5.30;1.50;;;2.70;99.90;;;;;;5007033;28;20259;-69
2023/03/15 01:09:45;;;;;;;4.93;1.50;;;2.60;99.90;;;;;;5006428;28;20324;-69
2023/03/15 01:12:12;;;;;;;2.00;1.00;;;2.60;99.90;;;;;;4993886;28;20691;-69
2023/03/15 01:14:39;;;;;;;4.83;1.30;;;2.60;99.90;;;;;;4990000;28;20300;-69
2023/03/15 01:17:06;;;;;;;5.67;1.23;;;2.60;99.90;;;;;;5006484;28;20225;-69
2023/03/15 01:19:33;;;;;;;5.43;1.40;;;2.50;99.90;;;;;;5009582;28;20229;-69
2023/03/15 01:21:59;;;;;;;4.63;1.10;;;2.60;99.90;;;;;;5010861;28;20296;-69
2023/03/15 01:24:28;;;;;;;5.97;1.03;;;2.50;99.90;;;;;;5010970;28;20209;-69
2023/03/15 01:26:55;;;;;;;2.57;1.00;;;2.50;99.90;;;;;;5010901;28;20319;-68
2023/03/15 01:29:22;;;;;;;3.63;1.20;;;2.50;99.90;;;;;;5010867;28;20225;-68
2023/03/15 01:31:48;;;;;;;5.70;1.50;;;2.50;99.90;;;;;;5010655;28;20298;-69
2023/03/15 01:34:15;;;;;;;4.37;1.47;;;2.60;99.90;;;;;;5010597;28;20240;-68
2023/03/15 01:36:42;;;;;;;4.57;1.03;;;2.60;99.90;;;;;;5010154;28;20236;-68
2023/03/15 01:39:10;;;;;;;5.10;1.30;;;2.60;99.90;;;;;;5010499;28;20209;-68
2023/03/15 01:41:38;;;;;;;4.53;1.20;;;2.60;99.90;;;;;;5010183;28;20206;-69
2023/03/15 01:44:05;;;;;;;4.60;1.20;;;2.60;99.90;;;;;;5010559;28;20217;-71
2023/03/15 01:46:33;;;;;;;4.30;1.30;;;2.50;99.90;;;;;;5010530;28;20297;-71
2023/03/15 01:49:06;;;;;;;2.57;1.17;;;2.50;99.90;;;;;;5010328;28;20305;-71
2023/03/15 01:51:36;;;;;;;2.27;0.73;;;2.50;99.90;;;;;;5010666;28;20198;-71
2023/03/15 01:54:07;;;;;;;4.93;1.50;;;2.40;99.90;;;;;;5010953;28;20248;-70
2023/03/15 01:56:37;;;;;;;6.57;1.50;;;2.40;99.90;;;;;;5010501;28;20205;-70
2023/03/15 01:59:09;;;;;;;2.70;1.00;;;2.40;99.90;;;;;;5010169;28;20332;-68
2023/03/15 02:01:44;;;;;;;4.80;1.37;;;2.30;99.90;;;;;;5010161;28;20280;-68
2023/03/15 02:04:15;;;;;;;2.73;0.87;;;2.30;99.90;;;;;;5010284;28;20655;-67
2023/03/15 02:06:45;;;;;;;4.30;1.27;;;2.30;99.90;;;;;;5009945;28;20723;-68
2023/03/15 02:09:15;;;;;;;5.87;1.13;;;2.20;99.90;;;;;;5009961;28;20303;-68
2023/03/15 02:11:42;;;;;;;5.93;1.67;;;2.20;99.90;;;;;;5009816;28;20296;-68
2023/03/15 02:14:13;;;;;;;2.97;1.10;;;2.20;99.90;;;;;;5009642;28;20292;-69
2023/03/15 02:16:40;;;;;;;5.20;1.40;;;2.20;99.90;;;;;;5004843;28;20198;-69
2023/03/15 02:19:11;;;;;;;3.37;1.50;;;2.20;99.90;;;;;;5009873;28;20640;-69
2023/03/15 02:21:50;;;;;;;4.83;1.00;;;2.20;99.90;;;;;;5009821;28;20336;-69
2023/03/15 02:24:32;;;;;;;6.13;1.47;;;2.20;99.90;;;;;;5009994;28;20198;-70
2023/03/15 02:26:59;;;;;;;3.90;1.30;;;2.20;99.90;;;;;;5009887;28;20329;-69
2023/03/15 02:29:28;;;;;;;2.30;1.40;;;2.20;99.90;;;;;;5008933;28;20308;-69
2023/03/15 02:31:57;;;;;;;5.17;1.17;;;2.20;99.90;;;;;;5009258;28;20311;-69
2023/03/15 02:34:24;;;;;;;3.97;1.33;;;2.20;99.90;;;;;;5009739;28;20726;-69
2023/03/15 02:36:52;;;;;;;5.17;1.30;;;2.10;99.90;;;;;;5018385;28;20193;-69
2023/03/15 02:39:21;;;;;;;4.23;1.53;;;2.00;99.90;;;;;;5020101;28;20297;-70
2023/03/15 02:41:52;;;;;;;4.07;1.30;;;2.10;99.90;;;;;;5009350;28;20272;-70
2023/03/15 02:44:22;;;;;;;2.77;1.33;;;2.10;99.90;;;;;;5009261;28;20274;-69
2023/03/15 02:46:53;;;;;;;2.53;1.07;;;2.10;99.90;;;;;;5009378;28;20292;-68
2023/03/15 02:49:23;;;;;;;7.93;1.60;;;2.00;99.90;;;;;;5009399;28;20251;-68
2023/03/15 02:51:50;;;;;;;7.47;1.30;;;2.00;99.90;;;;;;5008907;28;20616;-68
2023/03/15 02:54:17;;;;;;;6.13;1.43;;;2.00;99.90;;;;;;5009362;28;20380;-68
2023/03/15 02:56:44;;;;;;;3.53;1.20;;;2.10;99.90;;;;;;5008758;28;20201;-68
2023/03/15 02:59:11;;;;;;;6.27;1.60;;;2.00;99.90;;;;;;5008903;28;20215;-68
2023/03/15 03:01:38;;;;;;;5.03;2.17;;;2.00;99.90;;;;;;5009009;28;20229;-71
2023/03/15 03:04:07;;;;;;;5.33;2.10;;;2.00;99.90;;;;;;5008870;28;20296;-67
2023/03/15 03:06:34;;;;;;;6.67;2.43;;;2.00;99.90;;;;;;5008775;28;20293;-68
2023/03/15 03:09:03;;;;;;;5.53;3.40;;;2.00;99.90;;;;;;5008441;28;20237;-68
2023/03/15 03:11:30;;;;;;;5.50;2.30;;;1.90;99.90;;;;;;5001806;28;20210;-69
2023/03/15 03:13:57;;;;;;;4.57;2.20;;;2.00;99.90;;;;;;4989175;28;20230;-68
2023/03/15 03:16:24;;;;;;;8.13;3.40;;;2.00;99.90;;;;;;4989246;28;20293;-68
2023/03/15 03:18:51;;;;;;;5.73;2.57;;;2.00;99.90;;;;;;4994924;28;20225;-68
2023/03/15 03:21:19;;;;;;;3.43;2.87;;;2.00;99.90;;;;;;5008821;28;20233;-69
2023/03/15 03:23:46;;;;;;;5.77;3.70;;;1.90;99.90;;;;;;5008729;28;20255;-67
2023/03/15 03:26:15;;;;;;;5.90;2.93;;;2.00;99.90;;;;;;5008801;28;20261;-67
2023/03/15 03:28:44;;;;;;;1.43;1.33;;;2.00;99.90;;;;;;5008477;28;20423;-67
2023/03/15 03:31:17;;;;;;;4.73;2.60;;;2.00;99.90;;;;;;5008218;28;20243;-68
2023/03/15 03:33:44;;;;;;;4.47;1.30;;;2.00;99.90;;;;;;4987223;28;20203;-68
2023/03/15 03:36:11;;;;;;;4.70;1.60;;;1.90;99.90;;;;;;4994361;28;20201;-69
2023/03/15 03:38:40;;;;;;;6.00;2.00;;;1.90;99.90;;;;;;5026740;28;20332;-68
2023/03/15 03:41:07;;;;;;;3.63;1.50;;;1.90;99.90;;;;;;5013900;28;20248;-69
2023/03/15 03:43:34;;;;;;;3.30;1.93;;;1.90;99.90;;;;;;5006436;28;20220;-69
2023/03/15 03:46:01;;;;;;;6.93;1.23;;;1.90;99.90;;;;;;5006279;28;20324;-68
2023/03/15 03:48:28;;;;;;;7.40;1.70;;;1.90;99.90;;;;;;5006236;28;20300;-69
2023/03/15 03:50:55;;;;;;;5.00;1.30;;;1.80;99.90;;;;;;5006392;28;20208;-68
2023/03/15 03:53:22;;;;;;;8.20;2.77;;;1.80;99.90;;;;;;5006128;28;20216;-68
2023/03/15 03:55:50;;;;;;;4.37;1.47;;;1.80;99.90;;;;;;5006584;28;20222;-68
2023/03/15 03:58:17;;;;;;;3.23;1.40;;;1.80;99.90;;;;;;5006703;28;20216;-68
2023/03/15 04:00:44;;;;;;;4.10;1.97;;;1.70;99.90;;;;;;5006301;28;20233;-69
2023/03/15 04:03:11;;;;;;;5.37;1.60;;;1.80;99.90;;;;;;5006357;28;20240;-69
2023/03/15 04:05:38;;;;;;;9.20;1.70;;;1.80;99.90;;;;;;5006608;28;20306;-69
2023/03/15 04:08:05;;;;;;;1.93;1.23;;;1.70;99.90;;;;;;5006138;28;20217;-68
2023/03/15 04:10:33;;;;;;;3.43;1.50;;;1.70;99.90;;;;;;5005937;28;20408;-68
2023/03/15 04:13:02;;;;;;;6.57;2.53;;;1.70;99.90;;;;;;4987183;28;20221;-68
2023/03/15 04:15:30;;;;;;;4.43;1.50;;;1.70;99.90;;;;;;4998212;28;20978;-68
2023/03/15 04:17:57;;;;;;;4.40;1.70;;;1.70;99.90;;;;;;5006315;28;20209;-69
2023/03/15 04:20:25;;;;;;;6.53;1.43;;;1.70;99.90;;;;;;5006635;28;20225;-69
2023/03/15 04:22:52;;;;;;;6.47;2.03;;;1.80;99.90;;;;;;5006804;28;20297;-69
2023/03/15 04:25:20;;;;;;;2.53;1.23;;;1.80;99.90;;;;;;5007119;28;20233;-69
2023/03/15 04:27:57;;;;;;;3.87;1.40;;;1.90;99.90;;;;;;5007796;28;20288;-69
2023/03/15 04:30:27;;;;;;;3.13;1.30;;;1.90;99.90;;;;;;5007497;28;20205;-69
2023/03/15 04:32:57;;;;;;;2.03;0.90;;;1.90;99.90;;;;;;5007783;28;20216;-69
2023/03/15 04:35:25;;;;;;;3.63;1.23;;;1.90;99.90;;;;;;5007518;28;20659;-69
2023/03/15 04:37:52;;;;;;;3.23;1.00;;;1.90;99.90;;;;;;5007053;28;20300;-69
2023/03/15 04:40:19;;;;;;;3.50;1.50;;;1.90;99.90;;;;;;5007022;28;20300;-69
2023/03/15 04:42:46;;;;;;;2.73;1.20;;;1.90;99.90;;;;;;4989937;28;20878;-69
2023/03/15 04:45:13;;;;;;;2.17;1.07;;;1.80;99.90;;;;;;4987505;28;20759;-70
2023/03/15 04:47:41;;;;;;;5.53;1.80;;;1.80;99.90;;;;;;4987807;28;20285;-69
2023/03/15 04:50:09;;;;;;;3.57;1.40;;;1.80;99.90;;;;;;4987790;28;20210;-69
2023/03/15 04:52:36;;;;;;;2.40;1.30;;;1.80;99.90;;;;;;4986863;28;20269;-69
2023/03/15 04:55:03;;;;;;;5.30;1.73;;;1.80;99.90;;;;;;4987315;28;20297;-69
2023/03/15 04:57:30;;;;;;;3.37;1.60;;;1.70;99.90;;;;;;4987129;28;20748;-69
2023/03/15 04:59:57;;;;;;;1.97;1.13;;;1.70;99.90;;;;;;4992179;28;20230;-69
2023/03/15 05:02:24;;;;;;;4.07;1.33;;;1.80;99.90;;;;;;5006844;28;20312;-69
2023/03/15 05:04:52;;;;;;;3.43;1.23;;;1.80;99.90;;;;;;5006913;28;20669;-69
2023/03/15 05:07:19;;;;;;;3.00;1.63;;;1.70;99.90;;;;;;5007290;28;20300;-69
2023/03/15 05:09:46;;;;;;;3.63;1.27;;;1.70;99.90;;;;;;5006336;28;20241;-69
2023/03/15 05:12:13;;;;;;;2.87;1.53;;;1.60;99.90;;;;;;5006941;28;20301;-69
2023/03/15 05:14:41;;;;;;;7.17;1.83;;;1.60;99.90;;;;;;5006960;28;20296;-70
2023/03/15 05:17:08;;;;;;;5.00;1.13;;;1.50;99.90;;;;;;5006443;28;20216;-69
2023/03/15 05:19:35;;;;;;;5.50;2.03;;;1.50;99.90;;;;;;5006913;28;20243;-69
2023/03/15 05:22:04;;;;;;;3.80;1.40;;;1.50;99.90;;;;;;5006647;28;20237;-69
2023/03/15 05:24:31;;;;;;;4.13;1.40;;;1.40;99.90;;;;;;5006661;28;20213;-69
2023/03/15 05:26:58;;;;;;;3.70;1.30;;;1.40;99.90;;;;;;5006428;28;20320;-69
2023/03/15 05:29:25;;;;;;;4.13;1.47;;;1.40;99.90;;;;;;5006652;28;20550;-69
2023/03/15 05:31:52;;;;;;;7.27;1.80;;;1.50;99.90;;;;;;5006233;28;20299;-69
2023/03/15 05:34:22;;;;;;;4.33;1.47;;;1.50;99.90;;;;;;5001669;28;20213;-69
2023/03/15 05:36:50;;;;;;;3.67;1.30;;;1.40;99.90;;;;;;5006783;28;20247;-69
2023/03/15 05:39:21;;;;;;;4.77;1.43;;;1.50;99.90;;;;;;5006807;28;20304;-69
2023/03/15 05:41:48;;;;;;;4.73;1.63;;;1.40;99.90;;;;;;5006408;28;20714;-69
2023/03/15 05:44:15;;;;;;;4.67;1.60;;;1.50;99.90;;;;;;5006821;28;20632;-69
2023/03/15 05:46:42;;;;;;;4.23;1.30;;;1.50;99.90;;;;;;5006670;28;20557;-69
2023/03/15 05:49:09;;;;;;;4.07;1.40;;;1.60;99.90;;;;;;5006603;28;20294;-69
2023/03/15 05:51:36;;;;;;;5.13;1.50;;;1.60;99.90;;;;;;5006677;28;20202;-69
2023/03/15 05:54:03;;;;;;;1.37;1.13;;;1.60;99.90;;;;;;5006656;28;20292;-69
2023/03/15 05:56:32;;;;;;;5.17;1.40;;;1.60;99.90;;;;;;5006144;28;20241;-69
2023/03/15 05:59:01;;;;;;;5.73;1.37;;;1.70;99.90;;;;;;5006285;28;20307;-69
2023/03/15 06:01:28;;;;;;;7.03;1.50;;;1.70;99.90;;;;;;5006701;28;20233;-70
2023/03/15 06:03:55;;;;;;;5.03;1.33;;;1.70;99.90;;;;;;5006589;28;20210;-69
2023/03/15 06:06:22;;;;;;;5.30;1.83;;;1.80;99.90;;;;;;5009098;28;20220;-69
2023/03/15 06:08:49;;;;;;;3.10;1.47;;;1.70;99.90;;;;;;5009991;28;20324;-69
2023/03/15 06:11:16;;;;;;;4.00;1.40;;;1.70;99.90;;;;;;5009775;28;20209;-69
2023/03/15 06:13:44;;;;;;;2.37;1.20;;;1.80;99.90;;;;;;5008101;28;20220;-69
2023/03/15 06:16:11;;;;;;;2.27;0.97;;;1.80;99.90;;;;;;5008949;28;20292;-69
2023/03/15 06:18:38;;;;;;;3.13;1.47;;;1.90;99.90;;;;;;5009754;28;20202;-69
2023/03/15 06:21:05;;;;;;;3.73;1.50;;;1.80;99.90;;;;;;5009894;28;20328;-69
2023/03/15 06:23:32;;;;;;;2.53;1.43;;;1.80;99.90;;;;;;5009622;28;20304;-69
2023/03/15 06:25:58;;;;;;;6.13;2.30;;;1.80;99.90;;;;;;5009625;28;20742;-69
2023/03/15 06:28:25;;;;;;;3.17;1.60;;;1.80;99.90;;;;;;5009565;28;20753;-69
2023/03/15 06:30:54;;;;;;;3.93;1.70;;;1.90;99.90;;;;;;5009379;28;20304;-69
2023/03/15 06:33:23;;;;;;;9.97;2.63;;;1.90;99.90;;;;;;5009435;28;20245;-68
2023/03/15 06:35:50;;;;;;;2.27;1.77;;;1.90;99.90;;;;;;5009838;28;20209;-69
2023/03/15 06:38:17;;;;;;;5.20;1.60;;;2.00;99.90;;;;;;5029444;28;20666;-69
2023/03/15 06:40:44;;;;;;;6.03;2.27;;;2.00;99.90;;;;;;5019334;28;20209;-69
2023/03/15 06:43:17;;;;;;;3.67;1.50;;;2.00;99.90;;;;;;5009339;28;20304;-69
2023/03/15 06:45:44;;;;;;;4.57;1.53;;;2.10;99.90;;;;;;5009445;28;20197;-69
2023/03/15 06:48:13;;;;;;;3.37;1.67;;;2.10;99.90;;;;;;5009642;28;20216;-69
2023/03/15 06:50:40;;;;;;;6.77;1.80;;;2.20;99.90;;;;;;5009166;28;20209;-69
2023/03/15 06:53:07;;;;;;;3.17;1.67;;;2.30;99.90;;;;;;5009242;28;20214;-69
2023/03/15 06:55:34;;;;;;;5.53;2.20;;;2.30;99.90;;;;;;5008952;28;20232;-69
2023/03/15 06:58:00;;;;;;;4.23;2.90;;;2.30;99.90;;;;;;5009043;28;20316;-69
2023/03/15 07:00:28;;;;;;;8.37;2.50;;;2.40;99.90;;;;;;5009190;28;20267;-69
2023/03/15 07:02:54;;;;;;;8.23;2.40;;;2.50;99.90;;;;;;5008864;28;20243;-69
2023/03/15 07:05:23;;;;;;;5.40;1.73;;;2.50;99.90;;;;;;5008743;28;20245;-69
2023/03/15 07:07:50;;;;;;;5.07;1.30;;;2.60;99.90;;;;;;5008689;28;20297;-69
2023/03/15 07:10:17;;;;;;;6.37;1.90;;;2.70;99.90;;;;;;5008463;28;20320;-69
2023/03/15 07:12:43;;;;;;;7.60;1.90;;;2.80;99.90;;;;;;4992023;28;20300;-69
2023/03/15 07:15:11;;;;;;;5.77;1.97;;;2.80;99.90;;;;;;4996942;28;20291;-69
2023/03/15 07:17:38;;;;;;;6.93;1.80;;;2.80;99.90;;;;;;5008446;28;20201;-66
2023/03/15 07:20:07;;;;;;;6.93;3.20;;;2.80;99.90;;;;;;5008697;28;20209;-67
2023/03/15 07:22:35;;;;;;;5.33;2.63;;;2.80;99.90;;;;;;5008537;28;20241;-67
2023/03/15 07:25:02;;;;;;;6.40;3.40;;;2.80;99.90;;;;;;5006821;28;20232;-67
2023/03/15 07:27:29;;;;;;;4.70;2.07;;;2.80;99.90;;;;;;5005188;28;20217;-67
2023/03/15 07:29:56;;;;;;;6.50;1.80;;;2.80;99.90;;;;;;5008344;28;20212;-67
2023/03/15 07:32:23;;;;;;;6.47;2.77;;;2.90;99.90;;;;;;5008499;28;20215;-67
2023/03/15 07:34:49;;;;;;;3.10;2.70;;;2.90;99.90;;;;;;5008435;28;20640;-67
2023/03/15 07:37:17;;;;;;;9.20;3.33;;;2.90;99.90;;;;;;5008562;28;20288;-68
2023/03/15 07:39:45;;;;;;;5.20;2.83;;;2.90;99.90;;;;;;5008384;28;20210;-68
2023/03/15 07:42:12;;;;;;;6.63;2.80;;;3.00;99.90;;;;;;5008077;28;20233;-68
2023/03/15 07:44:39;;;;;;;4.73;1.87;;;3.00;99.90;;;;;;5008293;28;20256;-68
2023/03/15 07:47:06;;;;;;;2.97;2.37;;;3.10;99.90;;;;;;5008548;28;20313;-68
2023/03/15 07:49:34;;;;;;;4.77;1.60;;;3.10;99.90;;;;;;5008367;28;20292;-68
2023/03/15 07:52:01;;;;;;;4.63;1.87;;;3.10;99.90;;;;;;5007964;28;20212;-68
2023/03/15 07:54:30;;;;;;;4.50;1.80;;;3.20;99.90;;;;;;5008456;28;20637;-68
2023/03/15 07:56:58;;;;;;;4.50;1.63;;;3.10;99.90;;;;;;5008168;28;20296;-68
2023/03/15 07:59:25;;;;;;;3.83;1.77;;;3.10;99.90;;;;;;5008191;28;20248;-68
2023/03/15 08:01:52;;;;;;;7.70;2.10;;;3.10;99.90;;;;;;5007882;28;20779;-68
2023/03/15 08:04:20;;;;;;;5.43;1.73;;;3.20;99.90;;;;;;5008388;28;20817;-68
2023/03/15 08:06:46;;;;;;;5.47;2.10;;;3.30;99.90;;;;;;5008028;28;20213;-68
2023/03/15 08:09:13;;;;;;;5.97;1.90;;;3.30;99.90;;;;;;5007974;28;20332;-68
2023/03/15 08:11:40;;;;;;;7.07;2.43;;;3.30;99.90;;;;;;5005931;28;20312;-68
2023/03/15 08:14:09;;;;;;;4.57;1.80;;;3.30;99.90;;;;;;5007862;28;20311;-68
2023/03/15 08:16:36;;;;;;;5.37;1.47;;;3.30;99.90;;;;;;5007729;28;20671;-68
2023/03/15 08:19:02;;;;;;;5.03;1.90;;;3.40;99.90;;;;;;5007879;28;20292;-68
2023/03/15 08:21:32;;;;;;;6.03;1.50;;;3.40;99.90;;;;;;5007946;28;20281;-68
2023/03/15 08:23:59;;;;;;;5.10;1.57;;;3.50;99.90;;;;;;5007400;28;20213;-68
2023/03/15 08:26:26;;;;;;;4.27;1.90;;;3.50;99.90;;;;;;5007444;28;20331;-68
2023/03/15 08:28:53;;;;;;;3.17;1.43;;;3.60;99.90;;;;;;5006520;28;20217;-68
2023/03/15 08:31:21;;;;;;;6.07;1.70;;;3.60;99.90;;;;;;5007576;28;20607;-68
2023/03/15 08:33:48;;;;;;;2.90;1.70;;;3.50;99.90;;;;;;5007305;28;20301;-69
2023/03/15 08:36:15;;;;;;;4.90;2.00;;;3.50;99.90;;;;;;5007147;28;20252;-69
2023/03/15 08:38:42;;;;;;;5.40;2.20;;;3.40;99.90;;;;;;5007354;28;20215;-69
2023/03/15 08:41:09;;;;;;;5.13;2.03;;;3.30;99.90;;;;;;5006955;28;20300;-69
2023/03/15 08:43:36;;;;;;;3.23;2.03;;;3.40;99.90;;;;;;5006646;28;20657;-69
2023/03/15 08:46:03;;;;;;;3.43;2.03;;;3.40;99.90;;;;;;5007277;28;20295;-69
2023/03/15 08:48:31;;;;;;;3.03;1.80;;;3.40;99.90;;;;;;5006787;28;20206;-69
2023/03/15 08:51:02;;;;;;;4.57;2.23;;;3.50;99.90;;;;;;5007486;28;20316;-69
2023/03/15 08:53:29;;;;;;;4.67;2.80;;;3.50;99.90;;;;;;5006972;28;20227;-69
2023/03/15 08:55:56;;;;;;;4.90;2.20;;;3.50;99.90;;;;;;5006676;28;20217;-69
2023/03/15 08:58:23;;;;;;;3.10;2.07;;;3.50;99.90;;;;;;5006812;28;20664;-69
2023/03/15 09:00:50;;;;;;;7.17;2.90;;;3.50;99.90;;;;;;5007091;28;20301;-69
2023/03/15 09:03:18;;;;;;;10.60;3.10;;;3.50;99.90;;;;;;5007226;28;20326;-69
2023/03/15 09:05:46;;;;;;;5.23;2.53;;;3.50;99.90;;;;;;5006816;28;20208;-69
2023/03/15 09:08:15;;;;;;;7.20;2.77;;;3.60;99.90;;;;;;4994478;28;20760;-69
2023/03/15 09:10:42;;;;;;;5.87;3.00;;;3.70;99.90;;;;;;4987175;28;20238;-69
2023/03/15 09:13:10;;;;;;;2.40;1.97;;;3.60;99.90;;;;;;5006729;28;20251;-69
2023/03/15 09:15:36;;;;;;;4.20;1.90;;;3.60;99.90;;;;;;5006709;28;20205;-69
2023/03/15 09:18:05;;;;;;;5.93;2.20;;;3.50;99.90;;;;;;5006480;28;20257;-69
2023/03/15 09:20:31;;;;;;;2.90;2.20;;;3.50;99.90;;;;;;5006756;28;20695;-69
2023/03/15 09:23:00;;;;;;;5.57;2.03;;;3.60;99.90;;;;;;5006606;28;20707;-69
2023/03/15 09:25:27;;;;;;;2.43;1.67;;;3.60;99.90;;;;;;5006788;28;20313;-69
2023/03/15 09:27:54;;;;;;;3.37;1.70;;;3.70;99.90;;;;;;5006512;28;20634;-69
2023/03/15 09:30:21;;;;;;;6.30;1.93;;;3.70;99.90;;;;;;5006808;28;20236;-69
2023/03/15 09:32:48;;;;;;;4.93;2.20;;;3.70;99.90;;;;;;5006548;28;21069;-69
2023/03/15 09:35:17;;;;;;;5.67;2.50;;;3.80;99.90;;;;;;5006469;28;20300;-69
2023/03/15 09:37:44;;;;;;;4.80;1.90;;;3.80;99.90;;;;;;5023064;28;20209;-68
2023/03/15 09:40:18;;;;;;;3.77;2.30;;;3.90;99.90;;;;;;5023816;28;20643;-69
2023/03/15 09:43:00;;;;;;;3.57;2.60;;;4.00;99.90;;;;;;5010629;28;20424;-69
2023/03/15 09:45:51;;;;;;;3.07;2.17;;;4.10;99.90;;;;;;5010506;28;20288;-69
2023/03/15 09:48:24;;;;;;;5.27;1.73;;;4.20;99.90;;;;;;5008487;28;20260;-69
2023/03/15 09:50:54;;;;;;;3.53;1.97;;;4.10;99.90;;;;;;5010165;28;20209;-69
2023/03/15 09:53:28;;;;;;;4.57;2.07;;;4.10;99.90;;;;;;5010161;28;20243;-69
2023/03/15 09:55:56;;;;;;;4.13;1.80;;;4.10;99.90;;;;;;5010357;28;20276;-69
2023/03/15 09:58:28;;;;;;;4.33;2.13;;;4.00;99.90;;;;;;5010167;28;20296;-69
2023/03/15 10:00:58;;;;;;;4.57;2.00;;;4.10;99.90;;;;;;5009725;28;20200;-69
2023/03/15 10:03:35;;;;;;;2.33;2.00;;;4.10;99.90;;;;;;5009895;28;20244;-69
2023/03/15 10:06:11;;;;;;;8.53;2.03;;;4.10;99.90;;;;;;5010340;28;20193;-69
2023/03/15 10:08:38;;;;;;;5.00;2.00;;;4.20;99.90;;;;;;5009390;28;20288;-69
2023/03/15 10:11:14;;;;;;;2.50;1.83;;;4.20;99.90;;;;;;5006581;28;20246;-69
2023/03/15 10:13:58;;;;;;;2.97;1.97;;;4.30;99.90;;;;;;4990351;28;20237;-69
2023/03/15 10:16:37;;;;;;;4.83;2.17;;;4.30;99.90;;;;;;5009805;28;20256;-69
2023/03/15 10:19:15;;;;;;;4.03;2.13;;;4.40;99.90;;;;;;5010036;28;20546;-68
2023/03/15 10:21:51;;;;;;;4.63;1.97;;;4.40;99.90;;;;;;5009828;28;20230;-69
2023/03/15 10:24:23;;;;;;;2.30;1.53;;;4.60;99.90;;;;;;5009491;28;20296;-69
2023/03/15 10:26:53;;;;;;;2.83;1.63;;;4.70;99.90;;;;;;5009569;28;20201;-69
2023/03/15 10:29:25;;;;;;;5.90;2.00;;;4.90;99.90;;;;;;5009227;28;20648;-69
2023/03/15 10:31:54;;;;;;;2.97;1.93;;;5.10;99.90;;;;;;5009706;28;20225;-69
2023/03/15 10:34:21;;;;;;;3.20;1.43;;;5.30;99.90;;;;;;5009826;28;20296;-69
2023/03/15 10:36:53;;;;;;;4.13;1.90;;;5.50;99.90;;;;;;5009563;28;21099;-69
2023/03/15 10:39:20;;;;;;;3.43;1.30;;;5.80;99.90;;;;;;4990134;28;20205;-70
2023/03/15 10:41:48;;;;;;;2.73;1.37;;;5.90;99.90;;;;;;4998921;28;20237;-69
2023/03/15 10:44:20;;;;;;;3.43;1.20;;;5.90;99.90;;;;;;4990002;28;20317;-69
2023/03/15 10:47:02;;;;;;;2.60;1.53;;;5.90;99.90;;;;;;4990116;28;20248;-69
2023/03/15 10:49:37;;;;;;;3.57;1.57;;;5.50;99.90;;;;;;4989947;28;20261;-69
2023/03/15 10:52:05;;;;;;;2.50;1.20;;;5.20;99.90;;;;;;4989140;28;20209;-69
2023/03/15 10:54:33;;;;;;;4.70;1.70;;;5.10;99.90;;;;;;4989725;28;20246;-69
2023/03/15 10:57:03;;;;;;;3.57;1.70;;;5.10;99.90;;;;;;4989626;28;20206;-69
2023/03/15 10:59:34;;;;;;;2.20;1.70;;;5.10;99.90;;;;;;4991643;28;20269;-69
2023/03/15 11:02:21;;;;;;;3.60;1.93;;;5.10;99.90;;;;;;5009330;28;20292;-69
2023/03/15 11:04:50;;;;;;;4.80;2.20;;;5.30;99.90;;;;;;5009235;28;20284;-69
2023/03/15 11:07:17;;;;;;;2.10;1.53;;;5.50;99.90;;;;;;5009406;28;20217;-69
2023/03/15 11:09:45;;;;;;;2.63;1.40;;;5.80;99.90;;;;;;5008751;28;20252;-69
2023/03/15 11:12:20;;;;;;;2.03;1.47;;;5.50;99.90;;;;;;5008669;28;20747;-69
2023/03/15 11:14:51;;;;;;;4.00;1.60;;;5.40;99.90;;;;;;5008720;28;20231;-69
2023/03/15 11:17:21;;;;;;;4.83;1.80;;;5.20;99.90;;;;;;5009121;28;20198;-69
2023/03/15 11:19:55;;;;;;;4.67;1.43;;;5.30;99.90;;;;;;5008563;28;20297;-69
2023/03/15 11:22:22;;;;;;;1.63;1.33;;;5.50;99.90;;;;;;5008834;28;20211;-69
2023/03/15 11:24:49;;;;;;;1.50;1.23;;;5.70;99.90;;;;;;5008912;28;20476;-69
2023/03/15 11:27:18;;;;;;;4.27;1.50;;;6.00;99.90;;;;;;5008700;28;20819;-69
2023/03/15 11:29:51;;;;;;;1.87;1.00;;;6.20;99.90;;;;;;5008356;28;20201;-69
2023/03/15 11:32:21;;;;;;;2.33;1.30;;;6.30;99.90;;;;;;5008649;28;20656;-69
2023/03/15 11:34:55;;;;;;;2.73;1.70;;;6.40;99.90;;;;;;5008693;28;20308;-69
2023/03/15 11:37:27;;;;;;;4.77;1.63;;;6.80;99.90;;;;;;5012835;28;20668;-69
2023/03/15 11:40:00;;;;;;;3.30;1.50;;;7.10;99.90;;;;;;5008147;28;20746;-69
2023/03/15 11:42:30;;;;;;;3.80;1.57;;;7.10;99.90;;;;;;5008476;28;20365;-69
2023/03/15 11:45:04;;;;;;;5.17;1.67;;;7.10;99.90;;;;;;5008585;28;20244;-69
2023/03/15 11:47:41;;;;;;;1.90;1.30;;;7.10;99.90;;;;;;5008322;28;20763;-69
2023/03/15 11:50:13;;;;;;;2.63;1.77;;;7.20;99.90;;;;;;5008225;28;20292;-69
2023/03/15 11:52:41;;;;;;;3.13;1.40;;;7.10;99.90;;;;;;5008518;28;20277;-69
2023/03/15 11:55:17;;;;;;;3.50;1.57;;;7.20;99.90;;;;;;5008192;28;20242;-69
2023/03/15 11:57:46;;;;;;;3.13;1.73;;;7.40;99.90;;;;;;5007878;28;20251;-69
2023/03/15 12:00:26;;;;;;;2.43;1.17;;;7.70;99.90;;;;;;5008127;28;20216;-69
2023/03/15 12:02:56;;;;;;;3.90;1.63;;;7.80;99.90;;;;;;5006970;28;20214;-70
2023/03/15 12:05:43;;;;;;;4.20;1.50;;;7.90;99.90;;;;;;5007932;28;20767;-70
2023/03/15 12:08:20;;;;;;;3.60;1.20;;;8.10;99.90;;;;;;5007358;28;20780;-70
2023/03/15 12:10:49;;;;;;;2.33;1.50;;;8.20;99.90;;;;;;5006350;28;20876;-70
2023/03/15 12:13:34;;;;;;;3.23;1.40;;;8.40;99.90;;;;;;4988269;28;20280;-70
2023/03/15 12:16:06;;;;;;;2.07;1.20;;;7.90;99.90;;;;;;4988141;28;20297;-70
2023/03/15 12:18:42;;;;;;;3.60;1.27;;;8.00;99.90;;;;;;4988153;28;20289;-70
2023/03/15 12:21:15;;;;;;;3.67;1.57;;;8.10;99.90;;;;;;4988160;28;20225;-70
2023/03/15 12:23:49;;;;;;;1.73;1.30;;;8.10;99.90;;;;;;4988060;28;20225;-70
2023/03/15 12:26:25;;;;;;;6.13;1.50;;;8.20;99.90;;;;;;4987882;28;20237;-70
2023/03/15 12:29:02;;;;;;;1.30;1.20;;;8.50;99.90;;;;;;4987830;28;20300;-70
2023/03/15 12:31:46;;;;;;;1.50;1.37;;;8.70;99.90;;;;;;5004891;28;20193;-71
2023/03/15 12:34:22;;;;;;;4.00;1.50;;;8.40;99.90;;;;;;5007324;28;20205;-68
2023/03/15 12:36:52;;;;;;;4.03;1.37;;;8.60;99.90;;;;;;5007558;28;20304;-68
2023/03/15 12:39:22;;;;;;;3.40;1.43;;;8.90;99.90;;;;;;5007651;28;20193;-69
2023/03/15 12:41:51;;;;;;;4.07;1.60;;;8.90;99.90;;;;;;5007253;28;20304;-69
2023/03/15 12:44:33;;;;;;;3.27;1.60;;;9.00;99.90;;;;;;5007107;28;20826;-69
2023/03/15 12:47:03;;;;;;;3.40;1.53;;;9.30;99.90;;;;;;5007256;28;20241;-69
2023/03/15 12:49:39;;;;;;;2.50;1.70;;;9.60;99.90;;;;;;5007181;28;20676;-69
2023/03/15 12:52:27;;;;;;;2.27;1.20;;;9.70;99.90;;;;;;5007519;28;20284;-69
2023/03/15 12:55:01;;;;;;;1.63;1.20;;;9.80;99.90;;;;;;5005412;28;20240;-69
2023/03/15 12:57:30;;;;;;;4.43;1.53;;;10.00;99.90;;;;;;5007440;28;20692;-69
2023/03/15 13:00:00;;;;;;;2.77;1.43;;;10.00;99.60;;;;;;5006796;28;20253;-69
2023/03/15 13:02:33;;;;;;;2.93;1.23;;;9.90;99.80;;;;;;5007036;28;20209;-69
2023/03/15 13:05:12;;;;;;;1.37;1.10;;;10.00;99.90;;;;;;5006757;28;20237;-69
2023/03/15 13:07:53;;;;;;;3.20;1.43;;;10.10;99.90;;;;;;5006901;28;20280;-69